Time;durP1;ratioP1;P1;durP2;ratioP2;P2;SDS_P1;SDS_P2;PMS_P1;PMS_P2;Temp;Humidity;BMP_temperature;BMP_pressure;BME280_temperature;BME280_humidity;BME280_pressure;Samples;Min_cycle;Max_cycle;Signal;HPM_P1;HPM_P2
2021/12/24 00:00:10;;;;;;;;;36.25;29.50;;;;;10.00;82.30;100210.28;5060193;28;45408;-62
2021/12/24 00:02:35;;;;;;;;;34.75;31.75;;;;;10.00;82.53;100199.78;5058907;28;45479;-68
2021/12/24 00:05:00;;;;;;;;;36.50;32.00;;;;;10.01;82.07;100197.09;5059138;28;45550;-60
2021/12/24 00:07:27;;;;;;;;;34.75;30.50;;;;;10.00;81.93;100198.03;5058606;28;47044;-63
2021/12/24 00:09:52;;;;;;;;;41.25;30.75;;;;;9.97;82.49;100197.28;5041327;28;45610;-60
2021/12/24 00:12:20;;;;;;;;;35.25;30.00;;;;;10.00;82.10;100213.78;5058806;28;45363;-64
2021/12/24 00:14:51;;;;;;;;;38.00;31.25;;;;;9.99;82.10;100213.84;5059422;28;45374;-60
2021/12/24 00:17:22;;;;;;;;;39.75;33.50;;;;;9.98;82.06;100202.50;5059267;28;46405;-59
2021/12/24 00:20:06;;;;;;;;;36.00;31.25;;;;;9.94;82.05;100195.66;5058004;28;45232;-68
2021/12/24 00:35:52;;;;;;;;;41.75;34.50;;;;;10.00;82.74;100195.38;5059155;28;45315;-70
2021/12/24 00:38:17;;;;;;;;;37.75;32.00;;;;;10.02;82.43;100198.81;5058359;28;45990;-68
2021/12/24 00:40:46;;;;;;;;;37.50;32.00;;;;;10.02;82.38;100193.56;5059762;28;45401;-69
2021/12/24 00:43:14;;;;;;;;;38.50;31.00;;;;;10.04;82.22;100182.97;5046164;28;45203;-60
2021/12/24 00:45:44;;;;;;;;;33.50;30.75;;;;;10.05;82.41;100182.91;5040563;28;45451;-65
2021/12/24 00:48:12;;;;;;;;;18.25;16.50;;;;;10.01;82.53;100167.31;5024426;28;46422;-72
2021/12/24 00:51:18;;;;;;;;;39.50;34.00;;;;;10.08;82.23;100161.75;5041114;28;45273;-73
2021/12/24 00:56:13;;;;;;;;;38.50;31.75;;;;;10.09;82.22;100167.88;5038247;28;45573;-70
2021/12/24 00:58:40;;;;;;;;;36.75;28.75;;;;;10.09;82.50;100154.72;5043108;28;46188;-69
2021/12/24 01:01:10;;;;;;;;;39.50;32.75;;;;;10.06;82.60;100145.19;5043959;28;45496;-63
2021/12/24 01:03:35;;;;;;;;;39.00;32.75;;;;;10.08;82.53;100150.38;5054721;28;45308;-65
2021/12/24 01:06:01;;;;;;;;;40.00;34.25;;;;;10.09;82.27;100147.69;5057882;28;45526;-68
2021/12/24 01:08:27;;;;;;;;;41.00;31.50;;;;;10.08;82.29;100134.63;5043362;28;47571;-70
2021/12/24 01:10:56;;;;;;;;;40.25;32.00;;;;;10.07;82.33;100128.50;5042753;28;46150;-67
2021/12/24 01:13:23;;;;;;;;;40.25;33.00;;;;;10.05;81.80;100118.97;5048279;28;45589;-68
2021/12/24 01:18:44;;;;;;;;;58.25;44.75;;;;;10.04;81.88;100114.63;5051043;28;45806;-68
2021/12/24 01:21:33;;;;;;;;;41.50;33.75;;;;;9.98;82.13;100121.03;5028677;28;46248;-68
2021/12/24 01:24:03;;;;;;;;;35.50;30.25;;;;;9.97;81.92;100123.72;5042609;28;45422;-66
2021/12/24 01:26:46;;;;;;;;;42.50;31.00;;;;;9.92;82.24;100110.81;5044454;28;45667;-65
2021/12/24 01:40:39;;;;;;;;;41.25;31.75;;;;;9.81;82.42;100120.94;5055667;28;45532;-67
2021/12/24 01:42:54;;;;;;;;;39.25;33.00;;;;;9.80;82.36;100127.94;5053375;28;45497;-67
2021/12/24 01:45:27;;;;;;;;;38.75;32.75;;;;;9.78;82.28;100125.41;5058539;28;45446;-66
2021/12/24 01:48:05;;;;;;;;;35.00;30.00;;;;;9.77;82.44;100131.59;5034941;28;45424;-67
2021/12/24 01:50:33;;;;;;;;;34.50;31.75;;;;;9.77;82.47;100131.59;5045827;28;48421;-68
2021/12/24 01:53:01;;;;;;;;;34.50;31.00;;;;;9.77;82.92;100133.34;5039281;28;45336;-68
2021/12/24 01:55:28;;;;;;;;;32.75;31.50;;;;;9.77;82.68;100128.09;5037746;28;45510;-68
2021/12/24 01:57:53;;;;;;;;;33.50;30.00;;;;;9.74;82.51;100129.09;5039517;28;45586;-67
2021/12/24 02:00:32;;;;;;;;;35.00;30.00;;;;;9.73;82.50;100126.53;5038188;28;46609;-69
2021/12/24 02:02:58;;;;;;;;;38.25;33.75;;;;;9.73;82.65;100126.53;5033200;28;45942;-68
2021/12/24 02:05:24;;;;;;;;;34.75;31.75;;;;;9.73;82.57;100130.00;5057450;28;45339;-68
2021/12/24 02:07:50;;;;;;;;;45.25;32.50;;;;;9.73;82.73;100119.50;5040299;28;45356;-68
2021/12/24 02:10:17;;;;;;;;;39.75;32.75;;;;;9.74;82.81;100125.59;5055912;28;46535;-67
2021/12/24 02:12:43;;;;;;;;;35.00;31.25;;;;;9.75;82.94;100133.44;5045236;28;45440;-67
2021/12/24 02:15:17;;;;;;;;;36.50;32.00;;;;;9.74;82.93;100129.09;5037850;28;45312;-68
2021/12/24 02:28:43;;;;;;;;;38.25;31.50;;;;;9.68;83.03;100100.47;5028754;28;45332;-67
2021/12/24 02:31:16;;;;;;;;;44.25;32.75;;;;;9.67;83.12;100093.53;5056658;28;45498;-65
2021/12/24 02:33:42;;;;;;;;;39.25;29.75;;;;;9.65;83.08;100101.44;5047411;28;45411;-68
2021/12/24 02:36:09;;;;;;;;;36.00;31.00;;;;;9.63;83.34;100108.53;5037395;28;45553;-68
2021/12/24 02:38:36;;;;;;;;;34.50;30.75;;;;;9.65;83.10;100108.50;5056473;28;45646;-66
2021/12/24 02:41:02;;;;;;;;;30.75;29.00;;;;;9.65;83.42;100105.88;5038246;28;46197;-67
2021/12/24 02:43:28;;;;;;;;;36.50;31.50;;;;;9.63;83.33;100102.44;5053141;28;45216;-66
2021/12/24 02:45:57;;;;;;;;;35.75;32.00;;;;;9.62;83.57;100092.88;5056904;28;45193;-66
2021/12/24 02:53:57;;;;;;;;;39.75;30.50;;;;;9.62;83.54;100085.00;5036267;28;45353;-67
2021/12/24 02:56:25;;;;;;;;;33.75;31.00;;;;;9.62;83.44;100087.63;5035994;28;45467;-67
2021/12/24 02:58:52;;;;;;;;;36.50;30.00;;;;;9.62;83.81;100090.25;5054910;28;45611;-67
2021/12/24 03:01:22;;;;;;;;;36.25;31.00;;;;;9.60;83.52;100090.28;5051191;28;46850;-65
2021/12/24 03:03:48;;;;;;;;;36.25;31.25;;;;;9.58;83.87;100086.06;5039836;28;45443;-68
2021/12/24 03:06:18;;;;;;;;;33.00;29.75;;;;;9.53;83.75;100075.72;5053387;28;45450;-67
2021/12/24 03:08:44;;;;;;;;;29.75;27.75;;;;;9.58;83.86;100091.31;5043857;28;45374;-66
2021/12/24 03:11:09;;;;;;;;;33.25;27.25;;;;;9.56;83.65;100085.25;5036263;28;45342;-67
2021/12/24 03:13:36;;;;;;;;;35.25;30.00;;;;;9.53;84.01;100077.50;5017678;28;45406;-66
2021/12/24 03:16:03;;;;;;;;;38.25;31.75;;;;;9.57;83.50;100081.72;5049328;28;45480;-69
2021/12/24 03:18:31;;;;;;;;;35.25;29.75;;;;;9.53;83.45;100077.50;5037067;28;45189;-69
2021/12/24 03:23:38;;;;;;;;;34.00;29.75;;;;;9.55;83.59;100075.69;5035570;28;45401;-68
2021/12/24 03:26:05;;;;;;;;;28.50;27.00;;;;;9.55;83.56;100079.16;5036146;28;45338;-66
2021/12/24 03:28:31;;;;;;;;;33.50;28.00;;;;;9.56;83.93;100072.13;5054267;28;45480;-67
2021/12/24 03:30:57;;;;;;;;;38.00;31.75;;;;;9.56;83.50;100074.75;5042612;28;46229;-66
2021/12/24 03:33:22;;;;;;;;;40.00;33.50;;;;;9.56;83.79;100066.88;5045143;28;45418;-65
2021/12/24 03:35:47;;;;;;;;;36.75;31.25;;;;;9.58;83.81;100067.66;5056420;28;45426;-67
2021/12/24 03:38:13;;;;;;;;;52.00;40.00;;;;;9.58;83.63;100057.16;5046869;28;45383;-68
2021/12/24 03:40:38;;;;;;;;;32.75;31.25;;;;;9.60;83.69;100055.31;5039230;28;45362;-68
2021/12/24 03:43:03;;;;;;;;;38.25;32.00;;;;;9.60;83.67;100060.56;5056767;28;45448;-68
2021/12/24 03:45:37;;;;;;;;;37.50;31.50;;;;;9.60;83.59;100056.16;5046518;28;45466;-67
2021/12/24 03:48:14;;;;;;;;;35.50;31.25;;;;;9.61;83.59;100052.59;5056072;28;45533;-69
2021/12/24 03:50:49;;;;;;;;;38.25;31.75;;;;;9.61;83.26;100042.09;5061441;28;45427;-67
2021/12/24 03:55:59;;;;;;;;;32.00;30.00;;;;;9.61;83.40;100062.28;5055207;28;45470;-68
2021/12/24 03:58:24;;;;;;;;;29.25;27.25;;;;;9.58;83.62;100052.75;5055893;28;45367;-69
2021/12/24 04:00:49;;;;;;;;;30.50;29.00;;;;;9.60;83.74;100042.19;5043716;28;46495;-67
2021/12/24 04:03:15;;;;;;;;;40.50;32.00;;;;;9.61;83.75;100041.28;5041784;28;45314;-66
2021/12/24 04:05:40;;;;;;;;;33.75;30.50;;;;;9.64;83.37;100033.25;5053952;28;45518;-66
2021/12/24 04:08:06;;;;;;;;;32.00;29.75;;;;;9.67;83.54;100033.13;5054203;28;45207;-66
2021/12/24 04:10:40;;;;;;;;;43.75;32.00;;;;;9.69;83.52;100026.03;5037883;28;46112;-67
2021/12/24 04:13:07;;;;;;;;;27.00;26.25;;;;;9.69;83.15;100012.88;5064352;28;45338;-65
2021/12/24 04:15:35;;;;;;;;;34.50;30.00;;;;;9.64;83.00;100009.63;5057407;28;45575;-68
2021/12/24 04:18:00;;;;;;;;;34.00;30.25;;;;;9.68;83.34;100013.81;5053525;28;45554;-67
2021/12/24 04:25:53;;;;;;;;;34.50;30.00;;;;;9.68;83.49;100005.94;5035284;28;45312;-66
2021/12/24 04:28:18;;;;;;;;;36.00;32.00;;;;;9.70;83.44;100006.72;5044741;28;45497;-67
2021/12/24 04:30:49;;;;;;;;;36.50;30.50;;;;;9.67;83.39;100000.72;5054381;28;45932;-67
2021/12/24 04:33:28;;;;;;;;;35.00;29.50;;;;;9.66;83.49;100005.16;5044844;28;45332;-68
2021/12/24 04:36:11;;;;;;;;;35.00;29.50;;;;;9.64;83.97;99973.69;5046648;28;45458;-67
2021/12/24 04:52:57;;;;;;;;;39.75;31.50;;;;;9.73;84.03;99993.44;5038208;28;45864;-66
2021/12/24 05:03:23;;;;;;;;;31.50;28.75;;;;;9.68;84.46;99974.41;5057568;28;45728;-64
2021/12/24 05:05:54;;;;;;;;;34.75;29.75;;;;;9.69;84.44;99980.50;5049935;28;45497;-65
2021/12/24 05:08:24;;;;;;;;;33.50;29.50;;;;;9.72;84.49;99977.75;5037874;28;45357;-66
2021/12/24 05:10:51;;;;;;;;;26.50;20.50;;;;;9.74;84.58;99987.25;5037813;28;45409;-65
2021/12/24 05:13:19;;;;;;;;;38.75;32.50;;;;;9.73;84.52;99980.31;5052302;28;45535;-65
2021/12/24 05:15:48;;;;;;;;;34.25;30.00;;;;;9.75;84.22;99993.34;5051685;28;45363;-67
2021/12/24 05:18:57;;;;;;;;;38.00;31.75;;;;;9.73;84.42;99982.94;5058409;28;45312;-68
2021/12/24 05:21:33;;;;;;;;;39.00;30.75;;;;;9.71;84.48;99976.91;5058430;28;45528;-67
2021/12/24 05:24:06;;;;;;;;;36.00;28.50;;;;;9.72;84.47;99975.97;5054821;28;45504;-68
2021/12/24 05:26:33;;;;;;;;;32.75;28.50;;;;;9.71;84.69;99962.91;5040204;28;45420;-68
2021/12/24 05:28:59;;;;;;;;;34.25;30.25;;;;;9.72;84.28;99975.13;5053873;28;45389;-69
2021/12/24 05:31:25;;;;;;;;;29.75;28.50;;;;;9.70;85.08;99969.94;5048944;28;45623;-70
2021/12/24 05:33:51;;;;;;;;;32.25;29.50;;;;;9.74;84.27;99965.38;5054284;28;46422;-69
2021/12/24 05:36:17;;;;;;;;;30.50;28.00;;;;;9.71;84.68;99965.53;5058055;28;45321;-70
2021/12/24 05:38:43;;;;;;;;;35.75;30.00;;;;;9.74;85.12;99962.75;5055764;28;45395;-68
2021/12/24 05:41:09;;;;;;;;;31.75;30.25;;;;;9.74;85.36;99958.38;5038340;28;45241;-72
2021/12/24 05:43:35;;;;;;;;;30.00;28.00;;;;;9.77;85.46;99960.84;5047266;28;45220;-75
2021/12/24 05:46:00;;;;;;;;;32.00;30.00;;;;;9.79;85.33;99961.63;5054105;28;45812;-69
2021/12/24 05:48:26;;;;;;;;;33.50;30.00;;;;;9.77;85.60;99942.47;5060340;28;45371;-69
2021/12/24 05:50:51;;;;;;;;;37.00;30.00;;;;;9.77;85.61;99945.09;5057232;28;45272;-69
2021/12/24 05:53:16;;;;;;;;;33.25;28.50;;;;;9.84;85.74;99960.56;5057720;28;45490;-71
2021/12/24 05:55:42;;;;;;;;;35.75;29.75;;;;;9.84;85.72;99966.66;5058243;28;45338;-66
2021/12/24 05:58:08;;;;;;;;;16.25;14.00;;;;;9.83;86.39;99969.38;5058509;28;45411;-71
2021/12/24 06:00:39;;;;;;;;;30.00;26.25;;;;;9.85;86.29;99975.41;5057159;28;45398;-69
2021/12/24 06:03:07;;;;;;;;;31.50;27.50;;;;;9.86;86.07;99980.56;5057021;28;47070;-72
2021/12/24 06:05:37;;;;;;;;;39.50;32.25;;;;;9.78;86.01;99970.44;5056975;28;45257;-72
2021/12/24 06:08:04;;;;;;;;;32.50;29.50;;;;;9.79;86.12;99987.91;5060718;28;45380;-70
2021/12/24 06:10:29;;;;;;;;;34.50;31.00;;;;;9.77;86.73;99975.75;5057557;28;45317;-70
2021/12/24 06:12:56;;;;;;;;;34.75;32.00;;;;;9.75;86.69;99983.72;5056542;28;46115;-71
2021/12/24 06:15:24;;;;;;;;;38.00;32.00;;;;;9.73;86.54;99985.56;5056391;28;45440;-65
2021/12/24 06:17:53;;;;;;;;;34.25;30.25;;;;;9.73;87.33;99982.94;5056963;28;45394;-71
2021/12/24 06:20:21;;;;;;;;;30.75;28.25;;;;;9.73;86.99;99992.56;5058542;28;45312;-72
2021/12/24 06:22:47;;;;;;;;;36.25;30.00;;;;;9.65;87.47;99985.91;5057441;28;46285;-72
2021/12/24 06:25:12;;;;;;;;;39.00;31.25;;;;;9.70;87.71;99990.97;5057183;28;45330;-71
2021/12/24 06:27:38;;;;;;;;;35.25;30.25;;;;;9.69;88.04;99988.38;5056886;28;45597;-69
2021/12/24 06:30:06;;;;;;;;;30.75;29.75;;;;;9.63;88.11;99965.91;5057020;28;45502;-72
2021/12/24 06:32:31;;;;;;;;;36.50;30.00;;;;;9.67;88.67;99977.97;5038504;28;47464;-69
2021/12/24 06:34:57;;;;;;;;;34.00;29.00;;;;;9.64;88.38;99973.69;5057894;28;45727;-69
2021/12/24 06:37:22;;;;;;;;;31.75;28.50;;;;;9.63;88.72;99979.03;5058726;28;45289;-71
2021/12/24 06:39:47;;;;;;;;;34.00;30.00;;;;;9.61;89.33;99959.88;5057084;28;45339;-70
2021/12/24 06:42:13;;;;;;;;;30.25;28.50;;;;;9.61;89.63;99968.59;5056587;28;45344;-70
2021/12/24 06:44:38;;;;;;;;;37.75;32.25;;;;;9.59;89.45;99966.97;5057143;28;45489;-72
2021/12/24 06:47:04;;;;;;;;;31.50;29.50;;;;;9.58;90.24;99962.63;5057308;28;45402;-69
2021/12/24 06:49:30;;;;;;;;;36.00;30.00;;;;;9.56;89.72;99948.72;5057167;28;45270;-71
2021/12/24 06:51:55;;;;;;;;;35.00;31.25;;;;;9.54;89.76;99955.78;5057274;28;45256;-70
2021/12/24 06:54:21;;;;;;;;;34.25;30.00;;;;;9.49;90.21;99942.91;5057531;28;45665;-70
2021/12/24 06:56:47;;;;;;;;;36.75;29.50;;;;;9.47;90.53;99953.44;5056039;28;45413;-70
2021/12/24 06:59:12;;;;;;;;;32.50;29.25;;;;;9.49;91.11;99961.28;5038558;28;45398;-70
2021/12/24 07:01:38;;;;;;;;;34.00;29.75;;;;;9.49;91.01;99961.28;5056275;28;46136;-67
2021/12/24 07:04:03;;;;;;;;;30.25;27.75;;;;;9.46;90.80;99951.75;5058215;28;45311;-72
2021/12/24 07:06:29;;;;;;;;;29.00;28.75;;;;;9.45;90.83;99957.91;5055013;28;45345;-69
2021/12/24 07:08:55;;;;;;;;;32.00;30.25;;;;;9.39;91.62;99947.69;5058845;28;45525;-72
2021/12/24 07:11:21;;;;;;;;;34.50;29.75;;;;;9.39;91.30;99955.56;5056339;28;45510;-71
2021/12/24 07:13:46;;;;;;;;;30.50;29.25;;;;;9.46;91.59;99962.25;5056496;28;45170;-70
2021/12/24 07:16:12;;;;;;;;;27.75;27.25;;;;;9.44;91.69;99952.75;5056325;28;45368;-72
2021/12/24 07:18:38;;;;;;;;;28.00;28.00;;;;;9.46;91.94;99956.16;5056164;28;45561;-72
2021/12/24 07:21:04;;;;;;;;;30.00;29.50;;;;;9.49;92.04;99951.59;5055296;28;46111;-72
2021/12/24 07:23:30;;;;;;;;;27.00;25.00;;;;;9.48;91.59;99947.28;5055714;28;45351;-71
2021/12/24 07:25:55;;;;;;;;;29.25;26.75;;;;;9.48;92.33;99947.28;5056254;28;45311;-71
2021/12/24 07:28:21;;;;;;;;;36.50;30.00;;;;;9.49;92.16;99962.09;5057432;28;45668;-72
2021/12/24 07:30:46;;;;;;;;;32.25;28.50;;;;;9.50;92.43;99947.22;5039393;28;48213;-68
2021/12/24 07:33:14;;;;;;;;;32.50;29.00;;;;;9.50;92.81;99955.09;5057807;28;45349;-68
2021/12/24 07:35:43;;;;;;;;;29.25;27.50;;;;;9.49;92.54;99943.72;5055922;28;45339;-70
2021/12/24 07:38:13;;;;;;;;;29.00;24.50;;;;;9.52;92.96;99945.38;5055990;28;45237;-72
2021/12/24 07:40:38;;;;;;;;;30.50;28.25;;;;;9.52;92.42;99934.00;5039024;28;48582;-66
2021/12/24 07:43:04;;;;;;;;;30.75;28.00;;;;;9.53;92.55;99935.72;5055631;28;45272;-72
2021/12/24 07:45:29;;;;;;;;;26.25;24.00;;;;;9.53;92.47;99948.84;5055242;28;45366;-73
2021/12/24 07:48:09;;;;;;;;;24.50;21.75;;;;;9.48;92.45;99949.91;5056237;28;45310;-73
2021/12/24 07:53:02;;;;;;;;;29.00;22.25;;;;;9.43;92.89;99954.50;5056919;28;45186;-71
2021/12/24 07:55:28;;;;;;;;;23.50;23.50;;;;;9.41;92.62;99951.09;5056840;28;45345;-72
2021/12/24 07:57:53;;;;;;;;;25.00;22.25;;;;;9.43;92.86;99946.63;5055506;28;45247;-72
2021/12/24 08:00:22;;;;;;;;;28.50;23.75;;;;;9.41;93.18;99943.22;5055304;28;46275;-68
2021/12/24 08:02:48;;;;;;;;;23.50;20.25;;;;;9.47;93.08;99950.81;5055406;28;45245;-70
2021/12/24 08:05:18;;;;;;;;;21.25;21.25;;;;;9.50;93.03;99940.19;5037421;28;45307;-74
2021/12/24 08:07:44;;;;;;;;;23.25;21.25;;;;;9.50;93.41;99937.56;5057630;28;45652;-70
2021/12/24 08:10:09;;;;;;;;;22.75;20.75;;;;;9.52;93.21;99941.88;5058925;28;45996;-71
2021/12/24 08:12:34;;;;;;;;;19.50;18.00;;;;;9.56;93.07;99938.22;5057548;28;45399;-71
2021/12/24 08:15:00;;;;;;;;;21.00;21.00;;;;;9.54;93.19;99935.66;5058892;28;45394;-72
2021/12/24 08:17:25;;;;;;;;;23.25;21.75;;;;;9.56;92.88;99928.56;5059148;28;45327;-71
2021/12/24 08:19:50;;;;;;;;;23.50;22.00;;;;;9.57;92.67;99930.25;5059826;28;45661;-68
2021/12/24 08:22:16;;;;;;;;;25.00;19.00;;;;;9.55;92.96;99915.53;5041478;28;45320;-73
2021/12/24 08:24:41;;;;;;;;;19.25;19.25;;;;;9.52;93.23;99911.25;5059226;28;45312;-72
2021/12/24 08:27:08;;;;;;;;;16.75;16.00;;;;;9.58;93.40;99921.47;5061129;28;45669;-71
2021/12/24 08:29:34;;;;;;;;;17.00;16.25;;;;;9.60;93.26;99919.63;5058427;28;45218;-72
2021/12/24 08:32:01;;;;;;;;;25.75;22.75;;;;;9.61;93.17;99912.59;5059709;28;45675;-67
2021/12/24 08:34:26;;;;;;;;;36.25;27.75;;;;;9.67;93.40;99917.56;5042319;28;45426;-69
2021/12/24 08:36:53;;;;;;;;;20.25;19.00;;;;;9.54;93.08;99895.41;5059769;28;45535;-70
2021/12/24 08:39:19;;;;;;;;;19.50;16.50;;;;;9.70;92.65;99934.94;5041341;28;45446;-67
2021/12/24 08:41:46;;;;;;;;;15.50;14.50;;;;;9.69;93.21;99920.97;5058843;28;45570;-67
2021/12/24 08:44:12;;;;;;;;;17.50;15.50;;;;;9.76;93.26;99924.13;5059112;28;45319;-68
2021/12/24 08:46:37;;;;;;;;;15.00;15.00;;;;;9.73;92.96;99909.41;5059782;28;45225;-69
2021/12/24 08:49:03;;;;;;;;;17.50;15.50;;;;;9.82;92.77;99915.13;5063778;28;46106;-69
2021/12/24 08:51:29;;;;;;;;;20.50;17.50;;;;;9.87;93.02;99921.84;5061014;28;45272;-66
2021/12/24 08:53:55;;;;;;;;;17.25;15.50;;;;;9.93;92.15;99910.22;5057995;28;45276;-69
2021/12/24 08:56:22;;;;;;;;;24.50;19.75;;;;;9.99;92.83;99898.53;5058554;28;45439;-68
2021/12/24 08:58:47;;;;;;;;;20.75;20.00;;;;;10.07;92.50;99905.13;5058331;28;46247;-69
2021/12/24 09:01:13;;;;;;;;;19.00;16.00;;;;;10.12;92.37;99904.06;5057691;28;45374;-67
2021/12/24 09:03:38;;;;;;;;;20.75;17.00;;;;;10.14;92.17;99910.09;5057861;28;45445;-68
2021/12/24 09:06:04;;;;;;;;;18.25;16.75;;;;;10.18;92.06;99919.53;5058396;28;45378;-67
2021/12/24 09:08:30;;;;;;;;;21.50;18.00;;;;;10.19;92.16;99918.59;5058907;28;45394;-67
2021/12/24 09:10:55;;;;;;;;;20.75;18.75;;;;;10.19;92.06;99915.97;5061361;28;45385;-72
2021/12/24 09:13:20;;;;;;;;;18.25;18.25;;;;;10.25;91.50;99926.19;5061051;28;45405;-68
2021/12/24 09:15:46;;;;;;;;;24.00;20.75;;;;;10.28;91.40;99918.13;5057987;28;45560;-67
2021/12/24 09:18:12;;;;;;;;;27.50;20.25;;;;;10.31;91.54;99922.41;5057089;28;46299;-65
2021/12/24 09:20:41;;;;;;;;;18.25;17.25;;;;;10.35;91.42;99923.97;5057587;28;45193;-69
2021/12/24 09:23:08;;;;;;;;;19.25;15.50;;;;;10.38;91.25;99923.81;5039592;28;45377;-72
2021/12/24 09:25:34;;;;;;;;;23.25;20.25;;;;;10.41;91.31;99920.19;5057456;28;45340;-72
2021/12/24 09:28:00;;;;;;;;;19.75;18.25;;;;;10.44;91.55;99917.41;5056833;28;46453;-70
2021/12/24 09:30:28;;;;;;;;;19.50;17.75;;;;;10.50;90.98;99922.34;5057208;28;45422;-66
2021/12/24 09:32:54;;;;;;;;;6.75;5.25;;;;;10.47;91.03;99917.25;5057438;28;45326;-67
2021/12/24 09:35:22;;;;;;;;;18.50;15.75;;;;;10.48;90.76;99911.06;5058241;28;45193;-72
2021/12/24 09:37:48;;;;;;;;;22.00;18.75;;;;;10.54;90.76;99928.31;5059109;28;46100;-68
2021/12/24 09:40:14;;;;;;;;;21.00;18.25;;;;;10.56;90.78;99924.66;5058296;28;45508;-66
2021/12/24 09:42:41;;;;;;;;;23.50;21.00;;;;;10.57;90.95;99926.38;5038383;28;45284;-68
2021/12/24 09:45:08;;;;;;;;;22.75;19.50;;;;;10.58;90.96;99916.72;5056495;28;45572;-73
2021/12/24 09:47:33;;;;;;;;;21.00;19.50;;;;;10.62;90.54;99913.88;5056292;28;45244;-70
2021/12/24 09:49:59;;;;;;;;;19.75;19.25;;;;;10.65;91.08;99910.22;5056378;28;45423;-73
2021/12/24 09:52:26;;;;;;;;;22.50;21.00;;;;;10.69;90.62;99901.22;5056838;28;45238;-73
2021/12/24 09:54:52;;;;;;;;;24.75;20.00;;;;;10.82;91.11;99898.84;5057956;28;45341;-72
2021/12/24 09:57:18;;;;;;;;;23.00;19.50;;;;;10.93;90.16;99899.13;5057899;28;45808;-72
2021/12/24 09:59:43;;;;;;;;;23.50;18.00;;;;;11.03;90.02;99906.53;5058153;28;45432;-67
2021/12/24 10:02:15;;;;;;;;;24.00;23.75;;;;;11.08;89.76;99912.38;5057098;28;45305;-72
2021/12/24 10:04:43;;;;;;;;;22.25;20.75;;;;;11.09;89.30;99916.72;5058579;28;45250;-70
2021/12/24 10:07:11;;;;;;;;;22.50;20.00;;;;;11.09;89.63;99914.09;5059865;28;45675;-71
2021/12/24 10:09:39;;;;;;;;;18.50;15.50;;;;;11.06;88.85;99903.72;5039647;28;46092;-69
2021/12/24 10:12:10;;;;;;;;;18.00;18.00;;;;;11.06;88.86;99898.47;5038556;28;45396;-72
2021/12/24 10:14:38;;;;;;;;;24.50;22.00;;;;;11.08;89.58;99889.53;5056549;28;45326;-72
2021/12/24 10:17:15;;;;;;;;;22.00;15.75;;;;;11.17;89.29;99888.22;5056135;28;45351;-71
2021/12/24 10:19:47;;;;;;;;;16.50;16.00;;;;;11.22;88.68;99882.72;5056263;28;45395;-72
2021/12/24 10:22:15;;;;;;;;;23.00;22.00;;;;;11.19;88.66;99883.72;5038110;28;45425;-71
2021/12/24 10:24:40;;;;;;;;;24.75;18.75;;;;;11.20;88.69;99888.03;5056366;28;45489;-73
2021/12/24 10:27:06;;;;;;;;;18.75;16.75;;;;;11.20;88.68;99888.03;5056610;28;47461;-71
2021/12/24 10:29:38;;;;;;;;;17.00;16.00;;;;;11.16;88.29;99886.50;5058788;28;45300;-72
2021/12/24 10:32:21;;;;;;;;;17.00;17.00;;;;;11.14;88.80;99874.38;5056121;28;45351;-72
2021/12/24 10:34:46;;;;;;;;;19.75;19.75;;;;;11.13;88.49;99875.28;5056054;28;45323;-66
2021/12/24 10:37:26;;;;;;;;;25.50;21.50;;;;;11.14;88.23;99874.38;5056352;28;46502;-74
2021/12/24 10:40:00;;;;;;;;;24.50;21.00;;;;;11.15;88.33;99873.44;5056644;28;45395;-70
2021/12/24 10:42:38;;;;;;;;;25.75;20.25;;;;;11.18;88.92;99862.75;5039241;28;45338;-66
2021/12/24 10:45:21;;;;;;;;;25.75;25.50;;;;;11.20;88.65;99860.88;5058241;28;44847;-67
2021/12/24 10:47:47;;;;;;;;;23.25;22.75;;;;;11.27;89.00;99859.63;5055501;28;45616;-71
2021/12/24 10:53:12;;;;;;;;;25.75;22.25;;;;;11.41;88.27;99858.84;5057081;28;45292;-70
2021/12/24 10:55:45;;;;;;;;;36.00;27.00;;;;;11.45;88.71;99860.38;5054842;28;45292;-73
2021/12/24 10:58:17;;;;;;;;;23.50;21.50;;;;;11.50;88.32;99863.59;5054564;28;46145;-70
2021/12/24 11:00:48;;;;;;;;;27.25;25.25;;;;;11.54;88.12;99861.66;5055125;28;45358;-75
2021/12/24 11:03:21;;;;;;;;;32.25;26.00;;;;;11.56;87.95;99846.59;5054164;28;45384;-71
2021/12/24 11:05:53;;;;;;;;;30.75;28.00;;;;;11.65;87.46;99855.75;5054097;28;45232;-71
2021/12/24 11:08:22;;;;;;;;;25.25;23.25;;;;;11.67;87.21;99851.28;5036179;28;48290;-73
2021/12/24 11:10:56;;;;;;;;;23.75;20.50;;;;;11.71;86.95;99846.69;5054804;28;45681;-71
2021/12/24 11:13:39;;;;;;;;;25.75;24.75;;;;;11.77;87.26;99827.88;5056363;28;45266;-67
2021/12/24 11:16:10;;;;;;;;;19.50;16.75;;;;;11.86;86.79;99821.25;5058163;28;45359;-74
2021/12/24 11:18:43;;;;;;;;;21.25;18.50;;;;;11.89;86.30;99811.38;5056019;28;45376;-73
2021/12/24 11:21:18;;;;;;;;;22.00;20.75;;;;;11.96;86.49;99806.59;5058391;28;45217;-74
2021/12/24 11:23:44;;;;;;;;;23.00;20.00;;;;;11.96;86.38;99803.97;5057605;28;45408;-73
2021/12/24 11:26:12;;;;;;;;;26.00;23.75;;;;;12.04;86.06;99793.84;5054578;28;45283;-72
2021/12/24 11:28:39;;;;;;;;;29.00;28.25;;;;;12.13;86.18;99789.78;5054493;28;46278;-70
2021/12/24 11:31:06;;;;;;;;;28.00;24.75;;;;;12.03;85.88;99759.66;5056074;28;45269;-73
2021/12/24 11:33:34;;;;;;;;;26.50;21.00;;;;;12.24;85.74;99783.91;5055214;28;45267;-76
2021/12/24 11:36:04;;;;;;;;;22.25;20.75;;;;;12.28;85.28;99790.69;5055107;28;45585;-69
2021/12/24 11:38:39;;;;;;;;;23.25;20.50;;;;;12.30;84.84;99787.97;5054364;28;45386;-69
2021/12/24 11:41:10;;;;;;;;;29.50;26.25;;;;;12.30;84.94;99785.34;5053748;28;45440;-72
2021/12/24 11:43:39;;;;;;;;;26.00;19.25;;;;;12.24;84.72;99786.53;5053312;28;45404;-69
2021/12/24 11:46:07;;;;;;;;;26.00;21.75;;;;;12.22;84.64;99786.66;5014747;28;1138244;-72
2021/12/24 11:48:34;;;;;;;;;22.00;18.75;;;;;12.16;84.50;99794.88;5054479;28;47032;-71
2021/12/24 11:51:02;;;;;;;;;25.25;22.00;;;;;12.10;84.84;99789.97;5054604;28;45229;-68
2021/12/24 11:53:30;;;;;;;;;22.00;19.75;;;;;12.04;84.95;99793.84;5054530;28;45430;-71
2021/12/24 11:56:03;;;;;;;;;22.25;18.75;;;;;12.02;84.90;99798.34;5055177;28;45268;-71
2021/12/24 11:58:32;;;;;;;;;20.75;18.50;;;;;11.93;84.88;99786.53;5055666;28;45450;-70
2021/12/24 12:01:02;;;;;;;;;17.75;16.75;;;;;11.96;84.71;99790.78;5054365;28;45214;-74
2021/12/24 12:03:33;;;;;;;;;24.75;17.50;;;;;11.95;85.30;99791.72;5054839;28;45315;-73
2021/12/24 12:06:00;;;;;;;;;20.00;17.25;;;;;11.98;85.02;99788.91;5055602;28;45553;-70
2021/12/24 12:08:25;;;;;;;;;23.25;18.00;;;;;12.03;85.19;99791.28;5057239;28;45524;-72
2021/12/24 12:10:54;;;;;;;;;20.00;17.75;;;;;12.06;84.90;99785.84;5055160;28;45257;-72
2021/12/24 12:13:39;;;;;;;;;16.50;16.25;;;;;12.08;84.76;99787.44;5054636;28;45447;-74
2021/12/24 12:16:08;;;;;;;;;17.75;13.75;;;;;12.11;84.63;99786.41;5037692;28;45606;-70
2021/12/24 12:18:44;;;;;;;;;21.75;18.00;;;;;12.15;84.68;99787.09;5054611;28;46295;-70
2021/12/24 12:21:15;;;;;;;;;31.25;28.25;;;;;12.17;84.31;99782.56;5054085;28;45240;-70
2021/12/24 12:26:41;;;;;;;;;16.75;15.75;;;;;12.13;84.14;99790.66;5054737;28;45513;-72
2021/12/24 12:29:28;;;;;;;;;26.75;26.00;;;;;12.08;84.23;99795.38;5054172;28;46651;-68
2021/12/24 12:32:26;;;;;;;;;25.25;21.25;;;;;12.04;84.41;99799.13;5054456;28;45421;-73
2021/12/24 12:34:56;;;;;;;;;26.25;23.50;;;;;11.96;84.86;99791.63;5054381;28;45225;-72
2021/12/24 12:37:31;;;;;;;;;19.25;17.75;;;;;11.94;84.96;99793.50;5052943;28;45423;-69
2021/12/24 12:40:16;;;;;;;;;18.25;17.25;;;;;11.92;85.11;99789.25;5054155;28;46027;-76
2021/12/24 12:42:56;;;;;;;;;19.25;14.75;;;;;11.94;85.14;99771.56;5052634;28;45481;-73
2021/12/24 12:45:45;;;;;;;;;32.25;23.75;;;;;11.95;84.93;99773.28;5054406;28;45290;-71
2021/12/24 12:48:22;;;;;;;;;31.75;27.25;;;;;11.92;84.81;99776.09;5054395;28;45601;-71
2021/12/24 12:50:57;;;;;;;;;28.25;25.50;;;;;11.89;84.95;99777.09;5053488;28;46752;-73
2021/12/24 12:53:26;;;;;;;;;24.75;22.25;;;;;11.86;85.11;99776.44;5055061;28;45462;-73